DW9063 Weather Reports


Display with metric or nautical units.
time (UTC)temp
F
wind
direction
speed
MPH
gust
MPH
rain 1hr
in
rain 24hr
in
rain mn
in
humidity
%
barometer
mb
20210805014715 93 300 2.0 8.0 0.00 0.00 0.00 24 1007.8
20210805013139 93 304 3.0 7.0 0.00 0.00 0.00 22 1007.9
20210805011704 93 297 3.0 9.0 0.00 0.00 0.00 23 1008.0
20210805010246 93 297 5.0 10.0 0.00 0.00 0.00 23 1008.1
20210805004710 94 292 6.0 10.0 0.00 0.00 0.00 24 1008.0
20210805003153 94 323 5.0 11.0 0.00 0.00 0.00 22 1008.1
20210805001725 94 256 1.0 7.0 0.00 0.00 0.00 22 1008.2
20210805000255 94 302 4.0 14.0 0.00 0.00 0.00 22 1008.4
20210804234613 94 272 5.0 9.0 0.00 0.00 0.00 21 1008.4
20210804233109 94 306 6.0 11.0 0.00 0.00 0.00 22 1008.5
20210804231617 94 319 4.0 13.0 0.00 0.00 0.00 22 1008.6
20210804230102 94 315 6.0 11.0 0.00 0.00 0.00 22 1008.8
20210804224606 93 274 6.0 10.0 0.00 0.00 0.00 23 1008.9
20210804223055 93 314 4.0 10.0 0.00 0.00 0.00 24 1009.1
20210804221628 93 308 4.0 8.0 0.00 0.00 0.00 23 1009.2
20210804220055 93 304 4.0 12.0 0.00 0.00 0.00 23 1009.4
20210804214617 94 254 1.0 6.0 0.00 0.00 0.00 25 1009.6
20210804213045 91 13 2.0 6.0 0.00 0.00 0.00 27 1009.7
20210804211547 91 302 4.0 9.0 0.00 0.00 0.00 28 1009.9
20210804210114 91 303 5.0 8.0 0.00 0.00 0.00 27 1010.0
20210804204552 93 121 2.0 7.0 0.00 0.00 0.00 25 1010.1
20210804203043 92 154 1.0 5.0 0.00 0.00 0.00 26 1010.2
20210804201602 90 322 2.0 8.0 0.00 0.00 0.00 28 1010.2
20210804200056 88 293 2.0 6.0 0.00 0.00 0.00 28 1010.5
20210804194538 88 142 0.0 6.0 0.00 0.00 0.00 30 1010.5
20210804193044 88 185 1.0 5.0 0.00 0.00 0.00 30 1010.8
20210804191519 86 115 1.0 7.0 0.00 0.00 0.00 33 1010.9
20210804190028 85 63 4.0 7.0 0.00 0.00 0.00 33 1011.0
20210804184511 85 70 4.0 9.0 0.00 0.00 0.00 34 1011.1
20210804183009 84 27 6.0 11.0 0.00 0.00 0.00 36 1011.4
20210804181510 84 65 5.0 13.0 0.00 0.00 0.00 37 1011.5
20210804180007 83 347 7.0 14.0 0.00 0.00 0.00 36 1011.8
20210804174743 82 23 5.0 14.0 0.00 0.00 0.00 37 1011.8
20210804174505 82 49 6.0 14.0 0.00 0.00 0.00 37 1011.9
20210804173338 81 18 8.0 15.0 0.00 0.00 0.00 38 1011.9
20210804171652 81 333 7.0 14.0 0.00 0.00 0.00 38 1012.0
20210804170234 80 39 8.0 12.0 0.00 0.00 0.00 39 1012.1
20210804164637 80 56 6.0 12.0 0.00 0.00 0.00 39 1012.2
20210804163114 79 42 7.0 15.0 0.00 0.00 0.00 39 1012.3
20210804161600 78 28 4.0 11.0 0.00 0.00 0.00 42 1012.5
20210804160113 77 103 5.0 12.0 0.00 0.00 0.00 44 1012.6
20210804154608 76 27 5.0 11.0 0.00 0.00 0.00 45 1012.6
20210804153056 75 81 5.0 11.0 0.00 0.00 0.00 44 1012.7
20210804151540 76 11 4.0 11.0 0.00 0.00 0.00 44 1012.6
20210804150126 75 72 6.0 13.0 0.00 0.00 0.00 44 1012.7
20210804144540 75 81 4.0 10.0 0.00 0.00 0.00 45 1012.6
20210804143047 73 128 2.0 7.0 0.00 0.00 0.00 47 1012.5
20210804141617 72 183 1.0 4.0 0.00 0.00 0.00 48 1012.3
20210804140138 71 113 2.0 6.0 0.00 0.00 0.00 49 1012.0
20210804134536 71 101 1.0 3.0 0.00 0.00 0.00 48 1012.0
20210804133138 71 108 2.0 4.0 0.00 0.00 0.00 49 1011.8
20210804131609 70 121 1.0 4.0 0.00 0.00 0.00 50 1011.6
20210804130031 69 101 2.0 5.0 0.00 0.00 0.00 50 1011.5
20210804124601 70 103 2.0 6.0 0.00 0.00 0.00 48 1011.4
20210804123056 70 81 2.0 4.0 0.00 0.00 0.00 48 1011.4
20210804121557 71 113 2.0 8.0 0.00 0.00 0.00 47 1011.6
20210804120119 72 77 4.0 12.0 0.00 0.00 0.00 45 1011.4
20210804114557 72 99 6.0 11.0 0.00 0.00 0.00 44 1011.4
20210804113131 73 91 6.0 9.0 0.00 0.00 0.00 43 1011.4
20210804111606 73 55 7.0 12.0 0.00 0.00 0.00 44 1011.8
20210804110029 73 28 8.0 12.0 0.00 0.00 0.00 44 1011.9
20210804104547 71 91 3.0 7.0 0.00 0.00 0.00 47 1012.0
20210804103037 70 70 3.0 6.0 0.00 0.00 0.00 54 1012.2
20210804101523 68 107 0.0 2.0 0.00 0.00 0.00 61 1012.4
20210804100020 68 206 0.0 2.0 0.00 0.00 0.00 58 1012.1
20210804094513 68 134 2.0 5.0 0.00 0.00 0.00 55 1011.8
20210804093024 70 92 2.0 8.0 0.00 0.00 0.00 55 1012.0
20210804091529 70 38 1.0 3.0 0.00 0.00 0.00 56 1011.8
20210804090010 70 314 0.0 5.0 0.00 0.00 0.00 56 1011.7
20210804084508 71 348 1.0 4.0 0.00 0.00 0.00 57 1011.3
20210804083011 71 58 3.0 6.0 0.00 0.00 0.00 58 1011.2
20210804081502 71 51 3.0 5.0 0.00 0.00 0.00 57 1011.2
20210804080324 70 104 1.0 2.0 0.00 0.00 0.00 56 1011.1
20210804074641 71 84 2.0 3.0 0.00 0.00 0.00 54 1011.0
20210804073229 72 110 2.0 4.0 0.00 0.00 0.00 53 1011.1
20210804071728 71 97 1.0 2.0 0.00 0.00 0.00 53 1011.0
20210804070117 72 84 0.0 1.0 0.00 0.00 0.00 51 1010.8
20210804064614 73 60 2.0 5.0 0.00 0.00 0.00 49 1010.3
20210804063129 74 89 2.0 5.0 0.00 0.00 0.00 50 1010.3
20210804061622 74 37 2.0 4.0 0.00 0.00 0.00 50 1010.5
20210804060211 75 75 1.0 4.0 0.00 0.00 0.00 48 1010.6
20210804054605 74 84 0.0 2.0 0.00 0.00 0.00 50 1010.6
20210804053139 74 93 0.0 0.0 0.00 0.00 0.00 48 1010.8
20210804051622 75 94 0.0 2.0 0.00 0.00 0.00 46 1010.9
20210804050201 76 94 1.0 2.0 0.00 0.00 0.00 44 1011.0
20210804044645 77 100 0.0 2.0 0.00 0.00 0.00 41 1011.1
20210804043109 78 79 0.0 1.0 0.00 0.00 0.00 42 1011.1
20210804041601 79 79 0.0 1.0 0.00 0.00 0.00 39 1011.0
20210804040145 81 145 0.0 1.0 0.00 0.00 0.00 37 1011.0
20210804034637 83 145 0.0 1.0 0.00 0.00 0.00 34 1010.8
20210804033054 85 145 0.0 1.0 0.00 0.00 0.00 34 1010.7
20210804031604 86 145 0.0 0.0 0.00 0.00 0.00 31 1010.6
20210804030105 88 145 0.0 1.0 0.00 0.00 0.00 29 1010.6
20210804024552 89 118 0.0 2.0 0.00 0.00 0.00 28 1010.5
20210804023108 90 155 0.0 4.0 0.00 0.00 0.00 28 1010.5
20210804021700 91 132 1.0 3.0 0.00 0.00 0.00 27 1010.6
20210804020118 92 109 1.0 4.0 0.00 0.00 0.00 26 1010.6